createdAt,value
2023-05-20T00:00:02.700Z,1.27
2023-05-20T00:00:41.245Z,1.38
2023-05-20T00:01:16.232Z,1.10
2023-05-20T00:01:50.350Z,1.00
2023-05-20T00:02:24.959Z,1.10
2023-05-20T00:03:01.606Z,1.13
2023-05-20T00:03:36.208Z,1.35
2023-05-20T00:04:10.212Z,1.48
2023-05-20T00:04:46.923Z,1.50
2023-05-20T00:05:21.085Z,1.83
2023-05-20T00:05:55.613Z,2.20
2023-05-20T00:06:31.307Z,1.70
2023-05-20T00:07:05.944Z,1.52
2023-05-20T00:07:40.188Z,1.60
2023-05-20T00:08:16.849Z,1.58
2023-05-20T00:08:54.704Z,1.67
2023-05-20T00:09:29.196Z,1.90
2023-05-20T00:10:04.416Z,2.20
2023-05-20T00:10:38.496Z,1.95
2023-05-20T00:11:12.787Z,1.83
2023-05-20T00:11:48.366Z,1.98
2023-05-20T00:12:22.683Z,1.88
2023-05-20T00:12:56.397Z,2.20
2023-05-20T00:13:31.206Z,2.00
2023-05-20T00:14:04.686Z,1.88
2023-05-20T00:14:39.181Z,1.90
2023-05-20T00:15:14.010Z,2.00
2023-05-20T00:15:47.622Z,1.65
2023-05-20T00:16:21.894Z,2.20
2023-05-20T00:16:56.964Z,1.73
2023-05-20T00:17:29.879Z,1.65
2023-05-20T00:18:04.264Z,2.35
2023-05-20T00:18:38.697Z,3.03
2023-05-20T00:19:13.295Z,2.40
2023-05-20T00:19:47.403Z,2.15
2023-05-20T00:20:23.137Z,2.20
2023-05-20T00:20:56.840Z,2.40
2023-05-20T00:21:31.925Z,2.30
2023-05-20T00:22:06.640Z,2.08
2023-05-20T00:22:41.178Z,2.80
2023-05-20T00:23:15.800Z,2.72
2023-05-20T00:23:50.385Z,2.58
2023-05-20T00:24:27.000Z,2.65
2023-05-20T00:25:02.377Z,3.13
2023-05-20T00:25:36.527Z,2.90
2023-05-20T00:26:11.254Z,2.60
2023-05-20T00:26:46.414Z,2.90
2023-05-20T00:27:19.562Z,2.80
2023-05-20T00:27:52.417Z,2.47
2023-05-20T00:28:27.453Z,2.28
2023-05-20T00:29:02.130Z,2.20
2023-05-20T00:29:36.459Z,2.10
2023-05-20T00:30:12.530Z,2.70
2023-05-20T00:30:46.941Z,1.95
2023-05-20T00:31:20.665Z,1.77
2023-05-20T00:31:56.460Z,2.40
2023-05-20T00:32:31.230Z,1.85
2023-05-20T00:33:05.793Z,1.80
2023-05-20T00:33:40.636Z,1.98
2023-05-20T00:34:15.557Z,1.77
2023-05-20T00:35:00.261Z,1.67
2023-05-20T00:35:35.744Z,1.80
2023-05-20T00:36:09.837Z,1.83
2023-05-20T00:36:44.314Z,1.90
2023-05-20T00:37:19.116Z,1.60
2023-05-20T00:37:53.034Z,1.80
2023-05-20T00:38:26.550Z,1.80
2023-05-20T00:39:01.765Z,1.70
2023-05-20T00:39:36.591Z,1.83
2023-05-20T00:40:14.164Z,1.52
2023-05-20T00:40:50.352Z,1.40
2023-05-20T00:41:23.317Z,1.30
2023-05-20T00:42:00.549Z,1.17
2023-05-20T00:42:35.014Z,1.20
2023-05-20T00:43:10.434Z,1.00
2023-05-20T00:43:43.914Z,1.10
2023-05-20T00:44:19.853Z,1.23
2023-05-20T00:44:56.331Z,1.20
2023-05-20T00:45:30.045Z,1.30
2023-05-20T00:46:03.481Z,1.10
2023-05-20T00:46:38.465Z,0.73
2023-05-20T00:47:12.273Z,0.93
2023-05-20T00:47:46.891Z,0.93
2023-05-20T00:48:22.911Z,1.33
2023-05-20T00:48:56.832Z,1.23
2023-05-20T00:49:31.646Z,1.25
2023-05-20T00:50:07.414Z,1.00
2023-05-20T00:50:41.488Z,1.67
2023-05-20T00:51:15.487Z,0.90
2023-05-20T00:51:50.556Z,1.02
2023-05-20T00:52:24.383Z,1.30
2023-05-20T00:52:59.415Z,1.00
2023-05-20T00:53:33.709Z,1.00
2023-05-20T00:54:08.018Z,0.85
2023-05-20T00:54:43.641Z,1.33
2023-05-20T00:55:18.814Z,1.10
2023-05-20T00:55:53.087Z,0.90
2023-05-20T00:56:27.657Z,0.90
2023-05-20T00:57:03.342Z,0.90
2023-05-20T00:57:38.178Z,0.95
2023-05-20T00:58:12.523Z,1.25
2023-05-20T00:58:45.614Z,1.02
2023-05-20T00:59:19.502Z,0.80
2023-05-20T00:59:53.466Z,1.13
2023-05-20T01:00:27.588Z,1.42
2023-05-20T01:01:04.196Z,1.17
2023-05-20T01:01:38.646Z,1.15
2023-05-20T01:02:12.499Z,1.00
2023-05-20T01:02:47.365Z,1.00
2023-05-20T01:03:22.030Z,0.90
2023-05-20T01:03:56.898Z,0.70
2023-05-20T01:04:31.608Z,0.98
2023-05-20T01:05:05.600Z,1.13
2023-05-20T01:05:42.259Z,1.38
2023-05-20T01:06:16.412Z,0.80
2023-05-20T01:06:51.288Z,1.08
2023-05-20T01:07:26.148Z,1.10
2023-05-20T01:08:00.410Z,1.10
2023-05-20T01:08:35.019Z,1.08
2023-05-20T01:09:09.521Z,1.10
2023-05-20T01:09:44.533Z,0.82
2023-05-20T01:10:18.209Z,1.05
2023-05-20T01:10:58.397Z,0.80
2023-05-20T01:11:36.601Z,1.27
2023-05-20T01:12:13.940Z,1.17
2023-05-20T01:12:51.648Z,1.15
2023-05-20T01:13:30.026Z,1.00
2023-05-20T01:14:08.454Z,1.02
2023-05-20T01:14:45.379Z,1.02
2023-05-20T01:15:19.227Z,1.17
2023-05-20T01:15:55.134Z,1.00
2023-05-20T01:16:30.658Z,1.08
2023-05-20T01:17:10.361Z,1.08
2023-05-20T01:17:47.914Z,1.13
2023-05-20T01:18:22.265Z,1.02
2023-05-20T01:18:57.646Z,0.90
2023-05-20T01:19:35.574Z,0.70
2023-05-20T01:20:10.460Z,0.77
2023-05-20T01:20:46.961Z,1.20
2023-05-20T01:21:22.138Z,1.98
2023-05-20T01:21:56.914Z,1.08
2023-05-20T01:22:32.820Z,0.70
2023-05-20T01:23:07.480Z,0.77
2023-05-20T01:23:42.583Z,0.80
2023-05-20T01:24:16.570Z,1.50
2023-05-20T01:24:53.634Z,0.95
2023-05-20T01:25:28.113Z,0.90
2023-05-20T01:26:01.414Z,0.77
2023-05-20T01:26:39.011Z,1.10
2023-05-20T01:27:13.699Z,0.90
2023-05-20T01:27:50.422Z,1.15
2023-05-20T01:28:24.093Z,1.08
2023-05-20T01:28:58.264Z,0.80
2023-05-20T01:29:33.895Z,1.00
2023-05-20T01:30:09.821Z,1.15
2023-05-20T01:30:46.688Z,1.00
2023-05-20T01:31:24.532Z,1.00
2023-05-20T01:32:01.743Z,0.90
2023-05-20T01:32:38.306Z,0.95
2023-05-20T01:33:15.149Z,0.77
2023-05-20T01:33:54.335Z,0.90
2023-05-20T01:34:29.420Z,0.90
2023-05-20T01:35:02.885Z,0.73
2023-05-20T01:35:37.467Z,0.80
2023-05-20T01:36:11.217Z,0.75
2023-05-20T01:36:46.487Z,0.82
2023-05-20T01:37:22.155Z,0.90
2023-05-20T01:37:57.816Z,0.88
2023-05-20T01:38:32.476Z,0.77
2023-05-20T01:39:08.924Z,0.70
2023-05-20T01:39:42.712Z,0.90
2023-05-20T01:40:16.775Z,1.00
2023-05-20T01:40:53.868Z,1.00
2023-05-20T01:41:29.015Z,0.70
2023-05-20T01:42:03.037Z,0.70
2023-05-20T01:42:38.432Z,1.00
2023-05-20T01:43:12.120Z,0.88
2023-05-20T01:43:47.918Z,0.80
2023-05-20T01:44:21.990Z,0.63
2023-05-20T01:44:56.051Z,0.80
2023-05-20T01:45:29.531Z,0.75
2023-05-20T01:46:04.161Z,0.68
2023-05-20T01:46:39.622Z,1.00
2023-05-20T01:47:14.622Z,1.20
2023-05-20T01:47:50.662Z,0.70
2023-05-20T01:48:24.176Z,0.90
2023-05-20T01:48:59.562Z,1.00
2023-05-20T01:49:34.199Z,1.00
2023-05-20T01:50:09.308Z,0.80
2023-05-20T01:50:43.165Z,1.00
2023-05-20T01:51:19.134Z,1.25
2023-05-20T01:51:52.087Z,1.10
2023-05-20T01:52:26.241Z,0.95
2023-05-20T01:53:01.913Z,0.93
2023-05-20T01:53:35.278Z,1.02
2023-05-20T01:54:09.487Z,1.08
2023-05-20T01:54:51.501Z,0.70
2023-05-20T01:55:25.255Z,1.02
2023-05-20T01:55:59.437Z,1.30
2023-05-20T01:56:32.986Z,1.05
2023-05-20T01:57:08.250Z,1.23
2023-05-20T01:57:43.333Z,1.10
2023-05-20T01:58:17.555Z,1.10
2023-05-20T01:58:50.467Z,1.20
2023-05-20T01:59:26.298Z,1.13
2023-05-20T02:00:01.168Z,0.90
2023-05-20T02:00:35.733Z,0.70
2023-05-20T02:01:11.772Z,1.30
2023-05-20T02:01:46.277Z,0.73
2023-05-20T02:02:23.366Z,0.90
2023-05-20T02:02:56.623Z,0.75
2023-05-20T02:03:31.195Z,0.82
2023-05-20T02:04:07.660Z,0.70
2023-05-20T02:04:42.894Z,0.90
2023-05-20T02:05:17.538Z,0.75
2023-05-20T02:05:51.854Z,0.65
2023-05-20T02:06:26.000Z,0.73
2023-05-20T02:07:02.517Z,0.80
2023-05-20T02:07:38.408Z,0.90
2023-05-20T02:08:13.147Z,1.00
2023-05-20T02:08:47.290Z,0.68
2023-05-20T02:09:21.877Z,0.80
2023-05-20T02:09:55.029Z,1.08
2023-05-20T02:10:28.863Z,0.80
2023-05-20T02:11:05.107Z,0.80
2023-05-20T02:11:39.122Z,1.00
2023-05-20T02:12:17.402Z,1.10
2023-05-20T02:12:52.608Z,1.15
2023-05-20T02:13:27.031Z,1.10
2023-05-20T02:14:01.117Z,0.80
2023-05-20T02:14:36.024Z,1.02
2023-05-20T02:15:10.682Z,1.00
2023-05-20T02:15:44.992Z,1.20
2023-05-20T02:16:20.357Z,0.90
2023-05-20T02:16:53.756Z,1.00
2023-05-20T02:17:27.307Z,1.00
2023-05-20T02:18:03.123Z,0.80
2023-05-20T02:18:36.850Z,0.95
2023-05-20T02:19:13.543Z,1.10
2023-05-20T02:19:49.461Z,1.55
2023-05-20T02:20:24.031Z,0.82
2023-05-20T02:20:58.426Z,1.20
2023-05-20T02:21:36.074Z,0.77
2023-05-20T02:22:09.336Z,1.08
2023-05-20T02:22:43.284Z,0.82
2023-05-20T02:23:20.977Z,1.00
2023-05-20T02:23:55.522Z,1.00
2023-05-20T02:24:29.533Z,1.00
2023-05-20T02:25:03.489Z,0.70
2023-05-20T02:25:38.523Z,0.88
2023-05-20T02:26:12.676Z,0.95
2023-05-20T02:26:48.925Z,0.68
2023-05-20T02:27:24.283Z,0.82
2023-05-20T02:27:57.992Z,0.95
2023-05-20T02:28:31.859Z,0.90
2023-05-20T02:29:07.013Z,0.98
2023-05-20T02:29:41.189Z,1.33
2023-05-20T02:30:16.762Z,0.82
2023-05-20T02:30:51.851Z,0.90
2023-05-20T02:31:25.956Z,1.10
2023-05-20T02:32:02.196Z,0.93
2023-05-20T02:32:36.407Z,0.90
2023-05-20T02:33:11.134Z,0.88
2023-05-20T02:33:44.848Z,0.95
2023-05-20T02:34:20.374Z,0.95
2023-05-20T02:34:54.601Z,0.98
2023-05-20T02:35:28.591Z,0.90
2023-05-20T02:36:04.357Z,1.17
2023-05-20T02:36:38.501Z,0.60
2023-05-20T02:37:12.710Z,0.95
2023-05-20T02:37:49.070Z,0.77
2023-05-20T02:38:23.978Z,0.75
2023-05-20T02:38:57.897Z,0.98
2023-05-20T02:39:32.150Z,0.90
2023-05-20T02:40:07.334Z,1.20
2023-05-20T02:40:41.540Z,0.95
2023-05-20T02:41:15.539Z,1.30
2023-05-20T02:41:49.969Z,0.88
2023-05-20T02:42:23.257Z,0.80
2023-05-20T02:42:58.987Z,0.82
2023-05-20T02:43:33.765Z,0.90
2023-05-20T02:44:09.218Z,0.77
2023-05-20T02:44:44.409Z,0.90
2023-05-20T02:45:19.908Z,0.70
2023-05-20T02:45:56.038Z,0.80
2023-05-20T02:46:30.201Z,0.88
2023-05-20T02:47:05.242Z,0.80
2023-05-20T02:47:40.038Z,0.90
2023-05-20T02:48:13.203Z,0.93
2023-05-20T02:48:46.660Z,0.70
2023-05-20T02:49:21.448Z,0.90
2023-05-20T02:49:55.190Z,0.90
2023-05-20T02:50:29.438Z,0.90
2023-05-20T02:51:05.012Z,0.90
2023-05-20T02:51:38.798Z,1.00
2023-05-20T02:52:12.397Z,0.73
2023-05-20T02:52:48.749Z,0.90
2023-05-20T02:53:25.473Z,0.90
2023-05-20T02:53:59.393Z,0.93
2023-05-20T02:54:34.059Z,1.30
2023-05-20T02:55:09.273Z,1.30
2023-05-20T02:55:43.743Z,0.90
2023-05-20T02:56:21.675Z,1.05
2023-05-20T02:56:55.701Z,0.90
2023-05-20T02:57:29.065Z,0.93
2023-05-20T02:58:04.672Z,0.98
2023-05-20T02:58:41.772Z,0.82
2023-05-20T02:59:16.811Z,0.95
2023-05-20T02:59:51.115Z,0.93
2023-05-20T03:00:25.169Z,0.75
2023-05-20T03:00:59.495Z,0.80
2023-05-20T03:01:36.207Z,0.80
2023-05-20T03:02:10.789Z,0.77
2023-05-20T03:02:43.889Z,0.80
2023-05-20T03:03:19.601Z,0.90
2023-05-20T03:03:54.266Z,0.80
2023-05-20T03:04:28.721Z,0.70
2023-05-20T03:05:04.748Z,0.70
2023-05-20T03:05:39.504Z,0.82
2023-05-20T03:06:13.661Z,0.90
2023-05-20T03:06:49.046Z,0.90
2023-05-20T03:07:22.935Z,0.75
2023-05-20T03:07:58.197Z,1.00
2023-05-20T03:08:35.215Z,0.70
2023-05-20T03:09:10.737Z,0.73
2023-05-20T03:09:47.812Z,0.88
2023-05-20T03:10:22.198Z,1.13
2023-05-20T03:10:57.800Z,1.10
2023-05-20T03:11:31.880Z,0.70
2023-05-20T03:12:05.982Z,0.70
2023-05-20T03:12:41.666Z,0.73
2023-05-20T03:13:16.050Z,0.80
2023-05-20T03:13:50.597Z,0.70
2023-05-20T03:14:27.273Z,0.63
2023-05-20T03:15:02.137Z,1.00
2023-05-20T03:15:36.337Z,0.65
2023-05-20T03:16:10.816Z,0.70
2023-05-20T03:16:44.068Z,0.82
2023-05-20T03:17:18.360Z,0.70
2023-05-20T03:17:54.484Z,0.90
2023-05-20T03:18:30.757Z,1.10
2023-05-20T03:19:03.976Z,0.65
2023-05-20T03:19:39.442Z,0.70
2023-05-20T03:20:14.440Z,0.80
2023-05-20T03:20:49.645Z,0.68
2023-05-20T03:21:24.345Z,0.90
2023-05-20T03:21:58.235Z,0.80
2023-05-20T03:22:32.530Z,0.75
2023-05-20T03:23:06.835Z,0.70
2023-05-20T03:23:43.064Z,0.80
2023-05-20T03:24:18.549Z,0.90
2023-05-20T03:24:54.434Z,0.70
2023-05-20T03:25:27.262Z,0.90
2023-05-20T03:26:03.881Z,0.80
2023-05-20T03:26:38.495Z,0.85
2023-05-20T03:27:11.565Z,0.80
2023-05-20T03:27:46.683Z,0.70
2023-05-20T03:28:22.054Z,0.70
2023-05-20T03:28:56.324Z,0.90
2023-05-20T03:29:32.005Z,0.93
2023-05-20T03:30:06.086Z,0.80
2023-05-20T03:30:40.207Z,0.70
2023-05-20T03:31:15.421Z,0.70
2023-05-20T03:31:49.683Z,0.50
2023-05-20T03:32:24.758Z,0.70
2023-05-20T03:32:59.292Z,0.90
2023-05-20T03:33:34.398Z,0.70
2023-05-20T03:34:09.952Z,0.60
2023-05-20T03:34:44.156Z,0.52
2023-05-20T03:35:18.119Z,0.85
2023-05-20T03:35:53.791Z,0.70
2023-05-20T03:36:28.883Z,0.70
2023-05-20T03:37:02.942Z,0.90
2023-05-20T03:37:36.608Z,1.02
2023-05-20T03:38:12.211Z,0.70
2023-05-20T03:38:48.473Z,0.90
2023-05-20T03:39:22.368Z,0.65
2023-05-20T03:39:57.830Z,0.80
2023-05-20T03:40:32.431Z,0.90
2023-05-20T03:41:06.455Z,0.73
2023-05-20T03:41:41.512Z,0.70
2023-05-20T03:42:16.736Z,0.82
2023-05-20T03:42:52.262Z,1.10
2023-05-20T03:43:27.296Z,0.65
2023-05-20T03:44:01.509Z,1.00
2023-05-20T03:44:36.683Z,0.82
2023-05-20T03:45:12.775Z,0.82
2023-05-20T03:46:02.083Z,0.70
2023-05-20T03:46:37.255Z,0.80
2023-05-20T03:47:10.796Z,0.82
2023-05-20T03:47:45.596Z,0.98
2023-05-20T03:48:20.366Z,0.85
2023-05-20T03:48:55.084Z,1.20
2023-05-20T03:49:29.085Z,0.90
2023-05-20T03:50:04.954Z,1.00
2023-05-20T03:50:39.162Z,1.08
2023-05-20T03:51:12.866Z,1.00
2023-05-20T03:51:48.230Z,0.90
2023-05-20T03:52:22.974Z,0.70
2023-05-20T03:52:56.736Z,0.70
2023-05-20T03:53:32.111Z,0.80
2023-05-20T03:54:07.962Z,0.70
2023-05-20T03:54:42.291Z,0.75
2023-05-20T03:55:17.805Z,0.70
2023-05-20T03:55:51.195Z,1.00
2023-05-20T03:56:24.777Z,0.93
2023-05-20T03:57:01.055Z,0.85
2023-05-20T03:57:37.403Z,0.80
2023-05-20T03:58:11.151Z,1.00
2023-05-20T03:58:48.160Z,0.80
2023-05-20T03:59:23.533Z,0.90
2023-05-20T03:59:57.180Z,0.90
2023-05-20T04:00:32.652Z,0.88
2023-05-20T04:01:08.168Z,0.80
2023-05-20T04:01:43.015Z,0.90
2023-05-20T04:02:18.964Z,0.90
2023-05-20T04:02:53.355Z,0.85
2023-05-20T04:03:29.535Z,0.75
2023-05-20T04:04:04.900Z,0.80
2023-05-20T04:04:39.149Z,0.80
2023-05-20T04:05:13.317Z,0.65
2023-05-20T04:05:48.899Z,0.90
2023-05-20T04:06:27.380Z,0.70
2023-05-20T04:07:05.741Z,1.00
2023-05-20T04:07:40.227Z,0.90
2023-05-20T04:08:15.655Z,0.88
2023-05-20T04:08:49.281Z,0.80
2023-05-20T04:09:27.855Z,0.88
2023-05-20T04:10:02.124Z,0.70
2023-05-20T04:10:38.326Z,1.00
2023-05-20T04:11:12.379Z,0.98
2023-05-20T04:11:46.905Z,0.77
2023-05-20T04:12:21.480Z,0.77
2023-05-20T04:12:57.045Z,0.88
2023-05-20T04:13:30.058Z,0.90
2023-05-20T04:14:03.568Z,0.90
2023-05-20T04:14:39.066Z,1.65
2023-05-20T04:15:13.329Z,1.63
2023-05-20T04:16:01.648Z,1.00
2023-05-20T04:16:41.260Z,1.02
2023-05-20T04:17:15.356Z,0.82
2023-05-20T04:17:51.203Z,0.70
2023-05-20T04:18:25.046Z,1.45
2023-05-20T04:18:59.539Z,1.05
2023-05-20T04:19:34.941Z,1.60
2023-05-20T04:20:12.377Z,1.00
2023-05-20T04:20:47.329Z,1.50
2023-05-20T04:21:23.032Z,1.10
2023-05-20T04:21:57.431Z,0.93
2023-05-20T04:22:31.794Z,1.20
2023-05-20T04:23:07.072Z,1.20
2023-05-20T04:23:40.588Z,1.23
2023-05-20T04:24:14.918Z,1.30
2023-05-20T04:24:50.970Z,0.95
2023-05-20T04:25:26.558Z,1.00
2023-05-20T04:26:02.964Z,1.15
2023-05-20T04:26:40.446Z,0.88
2023-05-20T04:27:16.869Z,0.90
2023-05-20T04:27:51.038Z,0.88
2023-05-20T04:28:25.215Z,1.10
2023-05-20T04:29:02.086Z,0.90
2023-05-20T04:29:36.066Z,0.98
2023-05-20T04:30:10.971Z,0.88
2023-05-20T04:30:48.159Z,0.90
2023-05-20T04:31:27.827Z,0.90
2023-05-20T04:32:02.337Z,0.80
2023-05-20T04:32:36.871Z,0.90
2023-05-20T04:33:12.048Z,0.77
2023-05-20T04:33:46.878Z,0.82
2023-05-20T04:34:27.473Z,0.70
2023-05-20T04:35:03.122Z,0.80
2023-05-20T04:35:42.072Z,0.75
2023-05-20T04:36:17.967Z,0.80
2023-05-20T04:36:52.453Z,1.00
2023-05-20T04:37:26.965Z,0.80
2023-05-20T04:38:02.193Z,0.90
2023-05-20T04:38:36.952Z,0.77
2023-05-20T04:39:11.935Z,0.80
2023-05-20T04:39:48.954Z,0.85
2023-05-20T04:40:25.322Z,0.70
2023-05-20T04:40:59.424Z,0.93
2023-05-20T04:41:32.507Z,0.85
2023-05-20T04:42:07.493Z,0.82
2023-05-20T04:42:41.920Z,0.88
2023-05-20T04:43:18.583Z,0.90
2023-05-20T04:44:00.739Z,0.85
2023-05-20T04:44:33.935Z,0.80
2023-05-20T04:45:09.578Z,0.90
2023-05-20T04:45:45.973Z,0.93
2023-05-20T04:46:21.216Z,1.85
2023-05-20T04:46:56.487Z,2.47
2023-05-20T04:47:32.385Z,1.58
2023-05-20T04:48:07.859Z,1.33
2023-05-20T04:48:44.491Z,1.20
2023-05-20T04:49:19.953Z,1.15
2023-05-20T04:49:58.296Z,0.82
2023-05-20T04:50:32.578Z,1.15
2023-05-20T04:51:07.284Z,0.90
2023-05-20T04:51:42.044Z,0.90
2023-05-20T04:52:16.967Z,1.00
2023-05-20T04:52:51.858Z,0.55
2023-05-20T04:53:26.700Z,0.50
2023-05-20T04:54:01.338Z,0.80
2023-05-20T04:54:35.253Z,0.80
2023-05-20T04:55:11.183Z,1.00
2023-05-20T04:55:47.697Z,1.08
2023-05-20T04:56:21.149Z,0.70
2023-05-20T04:56:56.744Z,0.80
2023-05-20T04:57:30.993Z,0.85
2023-05-20T04:58:04.687Z,0.80
2023-05-20T04:58:39.810Z,0.60
2023-05-20T04:59:13.308Z,1.00
2023-05-20T04:59:47.875Z,0.80
2023-05-20T05:00:24.581Z,1.00
2023-05-20T05:00:58.945Z,0.90
2023-05-20T05:01:33.901Z,0.73
2023-05-20T05:02:09.596Z,0.70
2023-05-20T05:02:45.525Z,0.80
2023-05-20T05:03:20.096Z,1.00
2023-05-20T05:03:56.896Z,1.05
2023-05-20T05:04:32.082Z,0.70
2023-05-20T05:05:06.400Z,0.88
2023-05-20T05:05:43.223Z,0.90
2023-05-20T05:06:18.026Z,0.82
2023-05-20T05:06:51.342Z,0.68
2023-05-20T05:07:26.308Z,0.93
2023-05-20T05:08:01.189Z,0.73
2023-05-20T05:08:36.741Z,0.77
2023-05-20T05:09:11.404Z,0.80
2023-05-20T05:09:48.174Z,1.00
2023-05-20T05:10:25.400Z,1.10
2023-05-20T05:11:00.721Z,0.95
2023-05-20T05:11:33.931Z,0.90
2023-05-20T05:12:09.336Z,1.20
2023-05-20T05:12:42.828Z,0.80
2023-05-20T05:13:17.075Z,0.90
2023-05-20T05:13:53.203Z,0.90
2023-05-20T05:14:32.364Z,0.90
2023-05-20T05:15:07.805Z,0.75
2023-05-20T05:15:42.290Z,0.98
2023-05-20T05:16:17.169Z,0.80
2023-05-20T05:16:52.076Z,0.95
2023-05-20T05:17:29.084Z,0.80
2023-05-20T05:18:03.739Z,1.23
2023-05-20T05:18:38.033Z,1.38
2023-05-20T05:19:14.457Z,0.85
2023-05-20T05:19:49.896Z,1.10
2023-05-20T05:20:24.161Z,0.98
2023-05-20T05:21:02.602Z,0.88
2023-05-20T05:21:36.917Z,0.95
2023-05-20T05:22:10.994Z,0.77
2023-05-20T05:22:47.748Z,0.80
2023-05-20T05:23:22.747Z,0.85
2023-05-20T05:23:58.205Z,0.68
2023-05-20T05:24:32.681Z,0.70
2023-05-20T05:25:08.600Z,0.82
2023-05-20T05:25:43.255Z,1.00
2023-05-20T05:26:19.845Z,1.20
2023-05-20T05:26:54.790Z,1.08
2023-05-20T05:27:28.971Z,1.00
2023-05-20T05:28:03.698Z,0.80
2023-05-20T05:28:38.159Z,1.08
2023-05-20T05:29:11.920Z,0.77
2023-05-20T05:29:48.960Z,0.77
2023-05-20T05:30:25.268Z,1.08
2023-05-20T05:30:59.066Z,0.85
2023-05-20T05:31:34.215Z,0.70
2023-05-20T05:32:09.100Z,0.80
2023-05-20T05:32:42.953Z,1.05
2023-05-20T05:33:17.849Z,0.85
2023-05-20T05:33:53.800Z,0.70
2023-05-20T05:34:28.624Z,0.90
2023-05-20T05:35:02.727Z,0.82
2023-05-20T05:35:37.998Z,1.00
2023-05-20T05:36:13.318Z,0.90
2023-05-20T05:36:47.883Z,0.88
2023-05-20T05:37:21.803Z,1.15
2023-05-20T05:37:56.523Z,0.80
2023-05-20T05:38:29.950Z,0.68
2023-05-20T05:39:05.528Z,1.02
2023-05-20T05:39:40.730Z,2.13
2023-05-20T05:40:15.699Z,5.35
2023-05-20T05:40:50.169Z,2.22
2023-05-20T05:41:27.496Z,1.73
2023-05-20T05:42:01.425Z,1.13
2023-05-20T05:42:35.551Z,0.93
2023-05-20T05:43:09.862Z,0.77
2023-05-20T05:43:43.912Z,0.95
2023-05-20T05:44:18.712Z,0.85
2023-05-20T05:44:54.454Z,0.85
2023-05-20T05:45:28.249Z,1.10
2023-05-20T05:46:03.915Z,0.80
2023-05-20T05:46:37.159Z,1.00
2023-05-20T05:47:12.285Z,0.90
2023-05-20T05:47:47.505Z,0.70
2023-05-20T05:48:22.036Z,0.77
2023-05-20T05:48:55.101Z,0.80
2023-05-20T05:49:30.788Z,1.05
2023-05-20T05:50:05.594Z,1.50
2023-05-20T05:50:46.162Z,2.72
2023-05-20T05:51:22.790Z,1.08
2023-05-20T05:51:56.822Z,1.00
2023-05-20T05:52:32.151Z,1.25
2023-05-20T05:53:06.834Z,0.80
2023-05-20T05:53:42.777Z,0.82
2023-05-20T05:54:17.916Z,1.30
2023-05-20T05:54:51.956Z,1.08
2023-05-20T05:55:25.953Z,1.00
2023-05-20T05:56:02.376Z,0.77
2023-05-20T05:56:37.536Z,1.10
2023-05-20T05:57:12.759Z,0.80
2023-05-20T05:57:48.395Z,1.20
2023-05-20T05:58:23.663Z,0.90
2023-05-20T05:58:57.619Z,1.00
2023-05-20T05:59:32.283Z,0.80
2023-05-20T06:00:08.729Z,0.80
2023-05-20T06:00:53.182Z,0.98
2023-05-20T06:01:28.012Z,0.90
2023-05-20T06:02:01.720Z,0.90
2023-05-20T06:02:36.509Z,1.30
2023-05-20T06:03:11.426Z,1.00
2023-05-20T06:03:45.299Z,1.00
2023-05-20T06:04:20.308Z,1.08
2023-05-20T06:05:00.228Z,1.00
2023-05-20T06:05:33.713Z,1.10
2023-05-20T06:06:09.236Z,1.02
2023-05-20T06:06:42.852Z,1.20
2023-05-20T06:07:16.953Z,1.02
2023-05-20T06:07:53.062Z,0.90
2023-05-20T06:08:27.142Z,1.00
2023-05-20T06:09:01.830Z,0.68
2023-05-20T06:09:37.224Z,0.85
2023-05-20T06:10:13.856Z,1.08
2023-05-20T06:10:49.732Z,1.10
2023-05-20T06:11:24.332Z,1.05
2023-05-20T06:12:00.174Z,1.00
2023-05-20T06:12:33.484Z,1.00
2023-05-20T06:13:09.663Z,1.00
2023-05-20T06:13:43.652Z,0.90
2023-05-20T06:14:17.801Z,0.90
2023-05-20T06:14:53.642Z,0.90
2023-05-20T06:15:26.954Z,1.20
2023-05-20T06:16:00.655Z,1.00
2023-05-20T06:16:35.987Z,1.00
2023-05-20T06:17:10.197Z,1.15
2023-05-20T06:17:44.609Z,0.90
2023-05-20T06:18:20.843Z,0.73
2023-05-20T06:18:57.893Z,1.20
2023-05-20T06:19:32.224Z,0.90
2023-05-20T06:20:09.250Z,0.85
2023-05-20T06:20:42.707Z,0.90
2023-05-20T06:21:16.122Z,1.17
2023-05-20T06:21:50.911Z,1.17
2023-05-20T06:22:26.048Z,0.85
2023-05-20T06:22:59.979Z,1.20
2023-05-20T06:23:42.099Z,0.70
2023-05-20T06:24:17.495Z,1.02
2023-05-20T06:24:51.010Z,1.10
2023-05-20T06:25:26.083Z,1.23
2023-05-20T06:25:59.300Z,1.10
2023-05-20T06:26:33.674Z,1.20
2023-05-20T06:27:09.985Z,1.10
2023-05-20T06:27:44.312Z,1.13
2023-05-20T06:28:20.592Z,1.10
2023-05-20T06:28:55.136Z,0.90
2023-05-20T06:29:31.030Z,1.02
2023-05-20T06:30:04.501Z,1.20
2023-05-20T06:30:39.603Z,1.02
2023-05-20T06:31:14.202Z,1.02
2023-05-20T06:31:47.384Z,1.25
2023-05-20T06:32:21.440Z,1.10
2023-05-20T06:32:57.001Z,1.00
2023-05-20T06:33:30.833Z,1.20
2023-05-20T06:34:07.748Z,0.82
2023-05-20T06:34:44.770Z,0.80
2023-05-20T06:35:19.565Z,0.90
2023-05-20T06:35:53.301Z,0.85
2023-05-20T06:36:31.201Z,0.85
2023-05-20T06:37:06.147Z,0.93
2023-05-20T06:37:40.459Z,1.10
2023-05-20T06:38:15.150Z,1.17
2023-05-20T06:38:48.616Z,1.08
2023-05-20T06:39:24.070Z,0.93
2023-05-20T06:39:59.394Z,1.23
2023-05-20T06:40:34.737Z,1.20
2023-05-20T06:41:08.240Z,0.90
2023-05-20T06:41:43.723Z,0.82
2023-05-20T06:42:18.379Z,1.02
2023-05-20T06:42:55.844Z,0.90
2023-05-20T06:43:51.796Z,1.00
2023-05-20T06:44:46.667Z,0.93
2023-05-20T06:45:27.033Z,0.98
2023-05-20T06:46:05.450Z,1.02
2023-05-20T06:46:46.210Z,1.05
2023-05-20T06:47:21.946Z,0.93
2023-05-20T06:48:01.147Z,1.10
2023-05-20T06:48:34.598Z,1.05
2023-05-20T06:49:08.634Z,1.10
2023-05-20T06:49:45.743Z,1.23
2023-05-20T06:50:21.389Z,0.88
2023-05-20T06:50:56.316Z,0.90
2023-05-20T06:51:31.738Z,0.98
2023-05-20T06:52:08.253Z,1.05
2023-05-20T06:52:42.578Z,1.23
2023-05-20T06:53:17.826Z,0.80
2023-05-20T06:53:52.839Z,1.15
2023-05-20T06:54:26.589Z,1.10
2023-05-20T06:55:02.773Z,1.10
2023-05-20T06:55:36.890Z,1.10
2023-05-20T06:56:10.770Z,1.00
2023-05-20T06:56:46.050Z,0.88
2023-05-20T06:57:23.148Z,1.05
2023-05-20T06:57:57.364Z,1.00
2023-05-20T06:58:32.793Z,1.10
2023-05-20T06:59:07.725Z,1.00
2023-05-20T06:59:42.329Z,1.13
2023-05-20T07:00:17.290Z,1.38
2023-05-20T07:00:51.430Z,0.80
2023-05-20T07:01:25.168Z,1.00
2023-05-20T07:01:59.746Z,1.27
2023-05-20T07:02:34.995Z,1.30
2023-05-20T07:03:08.976Z,1.05
2023-05-20T07:03:44.968Z,1.20
2023-05-20T07:04:18.588Z,1.00
2023-05-20T07:04:53.653Z,1.17
2023-05-20T07:05:29.913Z,1.42
2023-05-20T07:06:04.345Z,1.23
2023-05-20T07:06:39.525Z,1.20
2023-05-20T07:07:14.497Z,1.30
2023-05-20T07:07:51.075Z,1.17
2023-05-20T07:08:25.654Z,1.13
2023-05-20T07:08:59.581Z,1.20
2023-05-20T07:09:35.771Z,1.10
2023-05-20T07:10:12.269Z,1.48
2023-05-20T07:10:47.881Z,1.02
2023-05-20T07:11:24.918Z,1.67
2023-05-20T07:11:59.926Z,1.40
2023-05-20T07:12:36.820Z,0.80
2023-05-20T07:13:10.473Z,1.10
2023-05-20T07:13:46.425Z,1.42
2023-05-20T07:14:20.066Z,1.20
2023-05-20T07:14:54.100Z,1.02
2023-05-20T07:15:29.869Z,1.27
2023-05-20T07:16:03.789Z,1.48
2023-05-20T07:16:37.677Z,0.98
2023-05-20T07:17:13.559Z,1.20
2023-05-20T07:17:48.692Z,1.08
2023-05-20T07:18:22.876Z,1.00
2023-05-20T07:19:03.774Z,1.33
2023-05-20T07:19:37.679Z,0.80
2023-05-20T07:20:11.833Z,1.08
2023-05-20T07:20:47.682Z,1.42
2023-05-20T07:21:34.820Z,0.88
2023-05-20T07:22:28.445Z,0.90
2023-05-20T07:23:07.706Z,0.75
2023-05-20T07:23:50.851Z,1.02
2023-05-20T07:24:26.297Z,1.02
2023-05-20T07:25:01.948Z,0.88
2023-05-20T07:25:38.607Z,0.85
2023-05-20T07:26:12.272Z,1.00
2023-05-20T07:26:45.367Z,1.13
2023-05-20T07:27:21.149Z,1.13
2023-05-20T07:27:56.087Z,1.08
2023-05-20T07:28:30.176Z,1.08
2023-05-20T07:29:05.157Z,0.70
2023-05-20T07:29:39.387Z,0.95
2023-05-20T07:30:14.495Z,1.00
2023-05-20T07:30:56.169Z,1.55
2023-05-20T07:31:34.924Z,1.90
2023-05-20T07:32:11.735Z,1.10
2023-05-20T07:32:46.968Z,1.30
2023-05-20T07:33:20.823Z,1.05
2023-05-20T07:33:56.340Z,1.30
2023-05-20T07:34:30.195Z,0.82
2023-05-20T07:35:03.896Z,1.05
